Key West, FL

2:58 AM EDT on August 31, 2014 (GMT -0400)
Big Coppitt Key Gulfside | Change Station
CLOSE
Current Station
Personal Weather Station
Location: Key West, FL
Elevation: 31 ft
Nearby Weather Stations

Elev 31 ft 24.60 °N, 81.67 °W | Updated 1 minute ago

Clear
Clear
82.9 °F
Feels Like 90 °F
N
3.2
Wind Variable Wind from ESE

Today
High -- | Low -- °F
--% Chance of Precip.
Yesterday
High -- | Low -- °F
Precip. -- in
7:07 AM 7:45 PM
Waxing Crescent, 28% visible
Pressure 30.06 in
Visibility 10.0 miles
Clouds Clear
Heat Index 90 °F
Dew Point 74 °F
Humidity 76%
Rainfall 0.00 in
Snow Depth Not available.
UV 0 out of 12
Pollen 5.80 out of 12
Air Quality Not available.
Flu Activity Not available.
METAR KNQX 310653Z AUTO 14008KT 10SM CLR 29/22 A3006 RMK AO2 WSHFT 0615 SLP177 T02890222 TSNO $

More Conditions Fewer Conditions

Pressure 30.06 in
Visibility 10.0 miles
Clouds Clear
Heat Index 90 °F
Dew Point 74 °F
Humidity 76%
Rainfall 0.00 in
Snow Depth Not available.
UV 0 out of 12
Pollen 5.80 out of 12
Air Quality Not available.
Flu Activity Not available.
METAR KNQX 310653Z AUTO 14008KT 10SM CLR 29/22 A3006 RMK AO2 WSHFT 0615 SLP177 T02890222 TSNO $

More Conditions Fewer Conditions

Nowcast | as of 2:38 am EDT on August 31, 2014

Widely scattered showers with embedded thunderstorms will trek northwest near 30 knots across the Keys area through 400 am. Mariners will expect wind gusts near 30 knots...near zero visibilities...rough seas...and occasional lightning strikes in stronger activity. Island locations from Ocean Reef to Layton may see very brief light to moderate rain producing wind gusts approaching 30 mph...and up to one tenth of an inch of rainfall.

×

10-Day Weather Forecast

Almanac

Astronomy

Aug. 31, 2014 Rise Set
Actual Time 7:07 AM EDT 7:45 PM EDT
Civil Twilight 6:44 AM EDT 8:09 PM EDT
Nautical Twilight 6:16 AM EDT 8:36 PM EDT
Astronomical Twilight 5:49 AM EDT 9:03 PM EDT
Moon 12:14 PM EDT 11:39 PM EDT
Length of Visible Light 13h 24m
Length of Day
12h 38m
Tomorrow will be 1m 22s shorter.
Waxing Crescent, 28% of the Moon is Illuminated
Today
Waxing Crescent
Sep 2
First Quarter
Sep 8
Full
Sep 15
Last Quarter
Sep 24
New

Today's Extremes

State Highs State Lows

Community

WunderPhotos

Upload Photos

1,748,800 photos uploaded!

Nearby

Snow Depth

Station Depth Elevation
No new snow has been reported.

Earthquake Activity

City Distance Mag. Time & Date
No recent earthquake activity has been reported nearby.
Minimum magnitude displayed is 2.5.

Coastal Water Temperatures

Place Temperature
Key West, FL 87.1 °F
Vaca Key, FL 87.1 °F

Nearby Weather Stations